Time;durP1;ratioP1;P1;durP2;ratioP2;P2;SDS_P1;SDS_P2;PMS_P1;PMS_P2;Temp;Humidity;BMP_temperature;BMP_pressure;BME280_temperature;BME280_humidity;BME280_pressure;Samples;Min_cycle;Max_cycle;Signal;HPM_P1;HPM_P2
2023/08/09 00:01:34;;;;;;;3.63;1.50;;;16.60;63.20;;;15.57;74.47;95950.25;4965071;28;20050;-62
2023/08/09 00:03:59;;;;;;;2.13;1.45;;;16.50;63.30;;;15.55;74.34;95952.34;4964064;28;20023;-62
2023/08/09 00:06:25;;;;;;;2.88;1.45;;;16.50;63.50;;;15.50;74.52;95953.00;4970480;28;20025;-62
2023/08/09 00:08:51;;;;;;;4.95;1.45;;;16.40;63.70;;;15.47;74.94;95945.50;4963339;28;20078;-62
2023/08/09 00:11:16;;;;;;;2.08;1.33;;;16.40;63.90;;;15.44;75.58;95955.75;4943226;28;20039;-62
2023/08/09 00:13:42;;;;;;;2.05;1.27;;;16.30;63.90;;;15.43;76.07;95951.47;4914175;29;20066;-62
2023/08/09 00:16:09;;;;;;;2.00;1.20;;;16.40;64.00;;;15.42;75.54;95948.03;4935164;28;20062;-62
2023/08/09 00:18:35;;;;;;;2.67;1.58;;;16.40;64.00;;;15.41;75.63;95946.41;4949697;28;20043;-63
2023/08/09 00:21:01;;;;;;;2.00;1.40;;;16.40;64.20;;;15.41;75.45;95950.91;4965574;28;20027;-62
2023/08/09 00:23:27;;;;;;;2.67;1.35;;;16.30;64.30;;;15.36;76.33;95940.13;4963222;28;20728;-62
2023/08/09 00:25:52;;;;;;;4.88;1.50;;;16.40;64.40;;;15.35;76.91;95941.97;4947568;28;20023;-62
2023/08/09 00:28:18;;;;;;;3.30;1.50;;;16.30;64.40;;;15.32;76.63;95937.94;4948919;28;20393;-62
2023/08/09 00:30:44;;;;;;;4.10;1.50;;;16.30;64.50;;;15.30;76.81;95934.69;4950779;28;20081;-63
2023/08/09 00:33:09;;;;;;;4.85;1.75;;;16.20;64.50;;;15.28;76.13;95931.47;4967631;28;20073;-61
2023/08/09 00:35:35;;;;;;;3.63;1.65;;;16.30;64.40;;;15.27;76.54;95932.50;4949533;28;20074;-62
2023/08/09 00:38:01;;;;;;;2.13;1.10;;;16.30;64.50;;;15.27;76.59;95932.50;4969292;28;20605;-62
2023/08/09 00:40:27;;;;;;;2.60;1.25;;;16.30;64.40;;;15.27;76.33;95929.84;4968434;28;20517;-62
2023/08/09 00:42:52;;;;;;;3.40;1.27;;;16.30;64.30;;;15.30;76.65;95926.75;4969461;28;20473;-62
2023/08/09 00:45:18;;;;;;;2.40;1.42;;;16.40;64.20;;;15.31;77.18;95927.56;4969710;28;20525;-62
2023/08/09 00:47:44;;;;;;;1.63;1.20;;;16.40;64.10;;;15.31;76.12;95931.00;4954193;28;20453;-62
2023/08/09 00:50:11;;;;;;;2.70;1.50;;;16.30;64.00;;;15.32;76.23;95927.31;4952726;28;20019;-62
2023/08/09 00:52:37;;;;;;;3.00;1.25;;;16.40;64.00;;;15.33;76.53;95930.78;4952928;28;20394;-62
2023/08/09 00:55:04;;;;;;;2.58;1.17;;;16.40;63.90;;;15.33;76.02;95934.25;4968905;28;20130;-62
2023/08/09 00:57:30;;;;;;;2.58;1.40;;;16.30;63.90;;;15.32;76.23;95937.94;4968951;28;20498;-62
2023/08/09 00:59:56;;;;;;;3.00;1.40;;;16.40;63.80;;;15.35;76.76;95934.03;4969067;28;20069;-62
2023/08/09 01:02:22;;;;;;;3.90;1.52;;;16.40;63.90;;;15.35;77.49;95935.88;4948770;28;20036;-61
2023/08/09 01:04:47;;;;;;;3.08;1.40;;;16.50;64.10;;;15.39;76.60;95943.16;4933823;29;20123;-62
2023/08/09 01:07:20;;;;;;;2.80;1.50;;;16.50;64.10;;;15.40;77.90;95944.78;4933158;29;20168;-62
2023/08/09 01:09:52;;;;;;;2.20;1.48;;;16.50;64.30;;;15.44;77.51;95945.16;4953112;28;20031;-62
2023/08/09 01:12:24;;;;;;;2.70;1.40;;;16.60;64.10;;;15.47;77.36;95942.84;4950119;28;20367;-62
2023/08/09 01:14:51;;;;;;;3.53;1.67;;;16.60;64.10;;;15.48;77.43;95947.13;4952582;28;20466;-62
2023/08/09 01:17:17;;;;;;;3.40;1.70;;;16.60;64.50;;;15.51;78.23;95943.22;4951750;28;20042;-63
2023/08/09 01:19:51;;;;;;;3.15;1.70;;;16.70;64.60;;;15.51;78.97;95945.88;4934992;28;20082;-63
2023/08/09 01:22:31;;;;;;;4.65;1.88;;;16.60;64.80;;;15.52;79.34;95945.63;4950095;28;20522;-62
2023/08/09 01:25:02;;;;;;;2.30;1.48;;;16.60;64.70;;;15.54;79.09;95945.41;4953875;28;20117;-61
2023/08/09 01:27:31;;;;;;;2.45;1.48;;;16.70;64.90;;;15.54;79.06;95950.72;4967778;28;20510;-62
2023/08/09 01:30:05;;;;;;;2.45;1.60;;;16.70;65.00;;;15.52;79.69;95948.28;4970511;28;20039;-61
2023/08/09 01:32:31;;;;;;;2.10;1.35;;;16.70;65.20;;;15.50;78.92;95938.94;4968544;28;20037;-62
2023/08/09 01:34:58;;;;;;;2.88;1.50;;;16.60;65.20;;;15.46;79.94;95937.78;4952843;28;20083;-61
2023/08/09 01:37:48;;;;;;;2.15;1.45;;;16.50;65.50;;;15.43;80.36;95943.53;4951730;28;20088;-62
2023/08/09 01:40:15;;;;;;;2.63;1.40;;;16.40;65.60;;;15.35;79.42;95936.66;4968887;28;20038;-61
2023/08/09 01:42:41;;;;;;;2.92;1.50;;;16.40;66.20;;;15.32;79.32;95937.94;4952496;28;20035;-62
2023/08/09 01:45:10;;;;;;;2.85;1.50;;;16.30;66.10;;;15.29;80.48;95937.56;4950345;28;20065;-61
2023/08/09 01:47:38;;;;;;;2.38;1.75;;;16.30;66.20;;;15.25;80.90;95925.81;4948158;28;20581;-62
2023/08/09 01:50:06;;;;;;;2.75;1.52;;;16.30;66.40;;;15.22;80.21;95939.50;4921198;29;20446;-61
2023/08/09 01:52:32;;;;;;;1.90;1.27;;;16.20;66.50;;;15.19;81.87;95937.28;4935578;28;20051;-62
2023/08/09 01:54:58;;;;;;;3.47;1.50;;;16.20;67.20;;;15.18;81.41;95940.97;4933416;29;20031;-62
2023/08/09 01:57:24;;;;;;;3.78;1.50;;;16.20;67.70;;;15.16;83.27;95929.75;4950917;28;20037;-61
2023/08/09 01:59:52;;;;;;;2.35;1.33;;;16.20;68.30;;;15.11;83.42;95919.84;4950341;28;20142;-61
2023/08/09 02:02:17;;;;;;;2.95;1.50;;;16.10;68.70;;;15.08;85.18;95930.06;4948831;28;20062;-62
2023/08/09 02:04:43;;;;;;;2.15;1.50;;;16.00;69.50;;;14.99;85.37;95929.56;4952212;28;20043;-62
2023/08/09 02:07:09;;;;;;;3.55;1.58;;;15.90;69.60;;;14.94;85.21;95929.41;4948875;28;20062;-62
2023/08/09 02:09:34;;;;;;;3.35;1.48;;;15.90;69.90;;;14.88;86.45;95931.09;4947868;28;26195;-62
2023/08/09 02:12:00;;;;;;;4.10;1.80;;;15.80;70.10;;;14.85;87.26;95928.88;4930760;29;20398;-61
2023/08/09 02:14:27;;;;;;;2.20;1.40;;;15.80;70.50;;;14.80;88.54;95934.03;4932530;28;20032;-62
2023/08/09 02:16:53;;;;;;;3.10;1.58;;;15.80;70.80;;;14.76;87.96;95927.56;4948284;28;20047;-62
2023/08/09 02:19:19;;;;;;;2.58;1.60;;;15.70;71.20;;;14.70;89.50;95915.97;4947647;28;20032;-62
2023/08/09 02:21:45;;;;;;;3.00;1.50;;;15.70;71.20;;;14.69;88.99;95917.00;4948409;28;20024;-62
2023/08/09 02:24:11;;;;;;;2.50;1.58;;;15.70;71.20;;;14.68;89.44;95917.22;4948573;28;20042;-62
2023/08/09 02:26:40;;;;;;;3.10;1.67;;;15.70;71.50;;;14.66;91.05;95911.34;4932709;28;20043;-62
2023/08/09 02:29:05;;;;;;;4.45;1.80;;;15.80;71.90;;;14.67;92.07;95905.03;4949062;28;20364;-62
2023/08/09 02:31:31;;;;;;;2.67;1.48;;;15.80;71.70;;;14.68;92.10;95907.44;4947522;28;20098;-62
2023/08/09 02:33:58;;;;;;;2.85;1.60;;;15.90;71.20;;;14.67;91.14;95907.69;4933075;29;20110;-62
2023/08/09 02:36:24;;;;;;;3.17;1.92;;;15.80;71.60;;;14.64;91.30;95908.91;4932193;28;20589;-63
2023/08/09 02:38:50;;;;;;;2.47;1.15;;;15.70;71.10;;;14.64;91.23;95911.56;4932965;29;20057;-63
2023/08/09 02:41:17;;;;;;;2.72;1.90;;;15.80;71.70;;;14.64;92.59;95908.91;4947640;28;20070;-63
2023/08/09 02:43:43;;;;;;;2.78;1.52;;;15.90;72.10;;;14.66;93.67;95925.41;4950002;28;20031;-63
2023/08/09 02:46:08;;;;;;;3.55;1.48;;;15.80;72.60;;;14.67;94.36;95919.06;4932736;29;20055;-63
2023/08/09 02:48:34;;;;;;;2.33;1.40;;;15.90;72.70;;;14.65;92.61;95909.72;4949021;28;20110;-68
2023/08/09 02:51:01;;;;;;;3.53;1.45;;;15.80;71.40;;;14.63;93.33;95912.59;4926868;28;20070;-68
2023/08/09 02:53:34;;;;;;;3.90;1.77;;;15.70;71.80;;;14.61;94.53;95905.91;4961232;28;20663;-68
2023/08/09 02:56:00;;;;;;;4.25;1.60;;;15.70;71.80;;;14.61;92.48;95906.72;4940612;28;20116;-63
2023/08/09 02:58:28;;;;;;;2.28;1.45;;;15.70;72.10;;;14.61;92.49;95897.97;4934102;28;20502;-63
2023/08/09 03:00:54;;;;;;;3.13;1.42;;;15.70;71.80;;;14.59;93.63;95889.44;4952516;28;20435;-63
2023/08/09 03:03:20;;;;;;;2.50;1.50;;;15.70;71.80;;;14.59;92.71;95900.03;4967564;28;20565;-63
2023/08/09 03:05:46;;;;;;;2.58;1.40;;;15.60;72.20;;;14.57;92.96;95897.59;4966717;28;20365;-63
2023/08/09 03:08:12;;;;;;;2.00;1.42;;;15.70;72.20;;;14.59;93.42;95894.72;4966801;28;20066;-64
2023/08/09 03:10:38;;;;;;;2.50;1.30;;;15.70;72.00;;;14.58;93.62;95898.41;4934680;28;20130;-64
2023/08/09 03:13:04;;;;;;;4.03;1.45;;;15.70;71.80;;;14.59;92.65;95894.72;4964573;28;20377;-64
2023/08/09 03:15:29;;;;;;;2.88;1.90;;;15.70;71.70;;;14.57;93.46;95900.25;4970313;28;20112;-63
2023/08/09 03:17:55;;;;;;;3.17;2.03;;;15.70;71.90;;;14.58;92.84;95901.88;4969723;28;20433;-63
2023/08/09 03:20:22;;;;;;;3.28;1.40;;;15.70;71.80;;;14.58;93.00;95904.50;4950424;28;20027;-62
2023/08/09 03:22:48;;;;;;;3.42;1.40;;;15.70;71.70;;;14.57;93.88;95908.19;4947965;28;20038;-63
2023/08/09 03:25:14;;;;;;;2.33;1.30;;;15.70;71.70;;;14.58;93.20;95904.50;4964079;28;20183;-63
2023/08/09 03:27:40;;;;;;;2.58;1.42;;;15.70;71.70;;;14.59;92.88;95900.84;4933438;28;20426;-63
2023/08/09 03:30:08;;;;;;;2.95;1.30;;;15.60;71.60;;;14.58;93.89;95920.41;4970269;28;20034;-63
2023/08/09 03:32:34;;;;;;;3.63;1.70;;;15.70;71.60;;;14.58;93.63;95923.03;4957093;28;20406;-63
2023/08/09 03:35:00;;;;;;;3.88;1.58;;;15.70;71.90;;;14.58;93.35;95919.59;4951521;28;20028;-63
2023/08/09 03:37:26;;;;;;;3.78;1.50;;;15.70;71.90;;;14.56;93.13;95921.66;4950450;28;20064;-63
2023/08/09 03:39:51;;;;;;;3.55;1.40;;;15.60;71.70;;;14.56;94.28;95927.75;4945914;28;20554;-63
2023/08/09 03:42:17;;;;;;;6.28;4.53;;;15.70;72.20;;;14.58;94.38;95928.34;4960212;28;20026;-63
2023/08/09 03:44:43;;;;;;;10.45;7.85;;;15.70;72.40;;;14.62;95.66;95932.16;4966948;28;20042;-63
2023/08/09 03:47:09;;;;;;;5.15;3.50;;;15.90;73.00;;;14.64;95.85;95930.09;4971658;28;20073;-63
2023/08/09 03:49:34;;;;;;;6.68;4.28;;;15.80;73.10;;;14.66;97.68;95941.28;4966631;28;20046;-64
2023/08/09 03:52:00;;;;;;;7.32;4.65;;;15.90;73.30;;;14.68;97.45;95941.88;4953094;28;20031;-74
2023/08/09 03:54:26;;;;;;;3.75;2.35;;;16.00;73.40;;;14.68;98.53;95941.88;4967454;28;20494;-65
2023/08/09 03:56:52;;;;;;;3.58;1.80;;;15.90;73.50;;;14.70;98.11;95945.09;4965898;28;20026;-65
2023/08/09 03:59:17;;;;;;;3.75;1.90;;;16.00;74.10;;;14.69;99.29;95953.25;4965892;28;20034;-66
2023/08/09 04:01:43;;;;;;;2.88;1.45;;;15.90;73.80;;;14.69;98.77;95966.50;4969907;28;20061;-65
2023/08/09 04:04:09;;;;;;;3.42;1.85;;;15.90;74.10;;;14.70;100.00;95971.59;4953992;28;20027;-65
2023/08/09 04:06:35;;;;;;;3.67;1.80;;;16.00;75.10;;;14.70;100.00;95965.47;4952773;28;20096;-66
2023/08/09 04:09:01;;;;;;;5.95;3.83;;;16.00;75.50;;;14.70;100.00;95981.38;4969178;28;20081;-65
2023/08/09 04:11:28;;;;;;;7.38;5.55;;;16.00;75.90;;;14.71;100.00;95977.72;4951198;28;20071;-65
2023/08/09 04:13:54;;;;;;;4.93;3.45;;;16.00;75.90;;;14.70;100.00;95970.78;4971089;28;20510;-65
2023/08/09 04:16:19;;;;;;;2.78;1.70;;;15.90;76.00;;;14.68;100.00;95978.94;4952526;28;20065;-65
2023/08/09 04:18:45;;;;;;;5.03;1.80;;;15.90;76.70;;;14.65;100.00;95970.63;4953230;28;20419;-66
2023/08/09 04:21:11;;;;;;;3.47;2.15;;;15.80;76.30;;;14.56;100.00;95959.50;4944047;28;20126;-66
2023/08/09 04:23:37;;;;;;;2.35;1.55;;;15.60;76.20;;;14.51;100.00;95959.34;4948647;28;20027;-66
2023/08/09 04:26:03;;;;;;;4.00;2.10;;;15.60;76.60;;;14.48;100.00;95951.81;4932744;29;20043;-65
2023/08/09 04:28:30;;;;;;;4.28;1.98;;;15.60;76.50;;;14.46;100.00;95943.28;4949089;28;20031;-65
2023/08/09 04:30:56;;;;;;;4.30;1.80;;;15.60;76.40;;;14.42;100.00;95939.44;4949091;28;20046;-65
2023/08/09 04:33:22;;;;;;;2.97;1.73;;;15.60;76.40;;;14.41;100.00;95956.34;4950030;28;20495;-66
2023/08/09 04:35:48;;;;;;;3.97;1.50;;;15.50;76.80;;;14.40;100.00;95960.81;4949142;28;20521;-63
2023/08/09 04:38:14;;;;;;;2.78;1.73;;;15.60;77.50;;;14.41;100.00;95956.34;4947489;28;20032;-65
2023/08/09 04:40:40;;;;;;;5.43;2.05;;;15.60;77.90;;;14.41;100.00;95972.22;4934363;28;20375;-65
2023/08/09 04:43:05;;;;;;;2.78;1.70;;;15.60;78.00;;;14.44;100.00;95976.28;4950710;28;20035;-65
2023/08/09 04:45:32;;;;;;;4.50;2.20;;;15.60;78.50;;;14.44;100.00;95982.41;4932516;28;20203;-65
2023/08/09 04:48:01;;;;;;;3.90;2.20;;;15.70;79.00;;;14.46;100.00;95975.06;4934888;28;20035;-65
2023/08/09 04:50:27;;;;;;;3.22;2.00;;;15.70;79.00;;;14.44;100.00;95971.81;4948972;28;20505;-66
2023/08/09 04:52:54;;;;;;;4.40;2.25;;;15.60;78.10;;;14.42;100.00;95973.84;4932924;28;20039;-63
2023/08/09 04:55:20;;;;;;;3.13;2.00;;;15.60;78.40;;;14.42;100.00;95971.19;4948737;28;20039;-65
2023/08/09 04:57:46;;;;;;;2.65;1.70;;;15.80;78.60;;;14.45;100.00;95972.63;4939641;28;20062;-64
2023/08/09 05:00:13;;;;;;;5.15;1.95;;;15.70;78.40;;;14.46;100.00;95983.00;4932480;29;20043;-64
2023/08/09 05:02:39;;;;;;;3.17;1.40;;;15.70;78.80;;;14.47;100.00;95984.59;4938261;28;20061;-64
2023/08/09 05:05:06;;;;;;;3.17;2.10;;;15.70;79.10;;;14.49;100.00;95979.13;4953869;28;20047;-64
2023/08/09 05:07:32;;;;;;;3.05;1.90;;;15.80;79.20;;;14.50;100.00;95975.44;4956219;28;20043;-65
2023/08/09 05:09:59;;;;;;;3.58;1.90;;;15.80;79.30;;;14.50;100.00;95975.44;4933335;29;20562;-64
2023/08/09 05:12:25;;;;;;;3.42;1.75;;;15.80;78.70;;;14.51;100.00;95982.38;4948528;28;20048;-64
2023/08/09 05:14:51;;;;;;;4.43;1.95;;;15.80;78.80;;;14.51;100.00;95980.53;4933133;28;20086;-64
2023/08/09 05:17:16;;;;;;;2.45;1.75;;;15.80;79.00;;;14.53;100.00;95988.25;4945727;28;20441;-64
2023/08/09 05:19:43;;;;;;;3.33;1.80;;;15.90;79.00;;;14.53;100.00;95985.59;4948802;28;20050;-64
2023/08/09 05:22:08;;;;;;;4.18;2.55;;;15.80;78.80;;;14.53;100.00;95986.41;4934211;29;20082;-64
2023/08/09 05:24:34;;;;;;;3.85;2.05;;;15.80;78.50;;;14.52;100.00;95986.63;4954915;28;20031;-65
2023/08/09 05:27:00;;;;;;;5.05;2.30;;;15.80;78.10;;;14.52;100.00;95990.09;4954080;28;20085;-64
2023/08/09 05:29:25;;;;;;;3.60;2.20;;;15.70;78.00;;;14.50;100.00;95991.34;4936101;28;20103;-64
2023/08/09 05:31:51;;;;;;;4.50;1.90;;;15.80;78.10;;;14.50;100.00;95986.03;4936150;28;20039;-65
2023/08/09 05:34:17;;;;;;;4.57;1.98;;;15.80;77.80;;;14.51;100.00;95977.88;4954957;28;20039;-64
2023/08/09 05:36:44;;;;;;;2.72;1.85;;;15.80;78.40;;;14.50;100.00;95976.25;4955137;28;20039;-64
2023/08/09 05:39:10;;;;;;;4.07;1.90;;;15.70;77.90;;;14.50;100.00;95970.97;4931449;29;20477;-64
2023/08/09 05:41:35;;;;;;;3.63;1.92;;;15.80;77.90;;;14.50;100.00;95970.97;4951582;28;20063;-65
2023/08/09 05:44:02;;;;;;;2.95;1.70;;;15.70;78.20;;;14.49;100.00;95974.66;4938934;28;20034;-64
2023/08/09 05:46:28;;;;;;;3.50;1.83;;;15.70;77.70;;;14.47;100.00;95981.16;4952248;28;20478;-64
2023/08/09 05:48:55;;;;;;;3.63;1.80;;;15.60;78.10;;;14.46;100.00;95975.06;4953539;28;20067;-64
2023/08/09 05:51:20;;;;;;;3.33;2.28;;;15.60;78.00;;;14.44;100.00;95971.00;4947550;28;20042;-64
2023/08/09 05:53:46;;;;;;;5.15;1.65;;;15.60;77.70;;;14.41;100.00;95975.66;4954519;28;20038;-65
2023/08/09 05:56:13;;;;;;;3.95;2.28;;;15.60;78.10;;;14.41;100.00;95980.16;4951931;28;20059;-64
2023/08/09 05:58:38;;;;;;;2.72;1.55;;;15.60;78.00;;;14.41;100.00;95975.66;4936241;28;20174;-64
2023/08/09 06:01:07;;;;;;;4.47;1.88;;;15.60;77.50;;;14.43;100.00;95982.59;4953124;28;20036;-64
2023/08/09 06:03:39;;;;;;;3.22;2.03;;;15.60;77.80;;;14.46;100.00;95977.69;4952767;28;20517;-65
2023/08/09 06:06:06;;;;;;;5.70;2.30;;;15.70;78.00;;;14.47;100.00;95974.03;4953094;28;20058;-64
2023/08/09 06:08:33;;;;;;;3.95;2.33;;;15.70;77.90;;;14.47;100.00;95974.03;4935789;29;20471;-64
2023/08/09 06:10:59;;;;;;;2.88;2.08;;;15.70;78.00;;;14.48;100.00;95978.28;4922216;28;20528;-65
2023/08/09 06:13:25;;;;;;;5.35;1.85;;;15.70;77.90;;;14.48;100.00;95980.13;4952444;28;20043;-65
2023/08/09 06:15:51;;;;;;;3.00;1.90;;;15.70;78.10;;;14.50;100.00;95981.56;4952875;28;20086;-64
2023/08/09 06:18:16;;;;;;;2.03;1.60;;;15.80;78.10;;;14.51;100.00;95985.00;4919154;29;20071;-65
2023/08/09 06:20:43;;;;;;;2.92;2.00;;;15.80;78.80;;;14.53;100.00;95989.06;4935527;28;20565;-64
2023/08/09 06:23:09;;;;;;;2.67;1.90;;;15.80;78.80;;;14.53;100.00;95991.72;4952293;28;20042;-64
2023/08/09 06:25:35;;;;;;;2.92;1.90;;;15.80;78.40;;;14.56;100.00;95995.75;4952419;28;20043;-64
2023/08/09 06:28:01;;;;;;;4.05;1.88;;;15.80;78.30;;;14.57;100.00;95987.59;4935560;29;20027;-64
2023/08/09 06:30:27;;;;;;;6.38;2.42;;;15.80;78.60;;;14.61;100.00;95994.06;4935167;29;20059;-64
2023/08/09 06:32:53;;;;;;;2.38;1.77;;;15.90;78.50;;;14.63;100.00;95991.22;4936285;28;20108;-64
2023/08/09 06:35:19;;;;;;;3.95;2.20;;;15.90;78.50;;;14.64;100.00;95991.00;4967908;28;20691;-65
2023/08/09 06:37:46;;;;;;;4.53;1.90;;;16.00;78.60;;;14.65;100.00;95989.97;4936172;28;20565;-64
2023/08/09 06:40:16;;;;;;;5.68;2.65;;;15.90;79.20;;;14.65;100.00;96000.56;4919649;28;20490;-64
2023/08/09 06:42:42;;;;;;;3.88;1.98;;;15.90;79.40;;;14.66;100.00;95999.53;4921889;28;20042;-64
2023/08/09 06:45:09;;;;;;;5.20;2.42;;;16.00;79.60;;;14.68;100.00;96002.75;4954601;28;20061;-64
2023/08/09 06:47:37;;;;;;;3.08;1.92;;;15.90;79.90;;;14.69;100.00;96000.94;4950687;28;20035;-64
2023/08/09 06:50:06;;;;;;;5.53;2.10;;;16.00;80.10;;;14.69;100.00;96001.72;4935280;28;20118;-64
2023/08/09 06:52:33;;;;;;;5.18;2.10;;;16.00;79.90;;;14.73;100.00;95996.03;4936702;29;20043;-64
2023/08/09 06:55:00;;;;;;;5.35;2.00;;;16.00;80.00;;;14.76;100.00;96006.19;4950979;28;20130;-64
2023/08/09 06:57:26;;;;;;;3.33;2.17;;;16.10;79.90;;;14.76;100.00;95999.06;4949854;28;20031;-65
2023/08/09 06:59:54;;;;;;;3.50;2.03;;;16.10;80.00;;;14.76;100.00;96000.88;4934624;28;20066;-64
2023/08/09 07:02:20;;;;;;;5.97;2.20;;;16.00;80.20;;;14.77;100.00;95999.84;4967791;28;20035;-65
2023/08/09 07:04:47;;;;;;;3.95;1.95;;;16.10;80.60;;;14.77;100.00;96005.16;4934825;28;20102;-65
2023/08/09 07:07:13;;;;;;;3.65;2.05;;;16.10;80.60;;;14.80;100.00;96002.06;4951028;28;20117;-64
2023/08/09 07:09:38;;;;;;;3.45;2.20;;;16.10;80.50;;;14.82;100.00;96005.31;4951407;28;20039;-64
2023/08/09 07:12:05;;;;;;;3.05;2.08;;;16.10;80.20;;;14.85;100.00;96005.69;4951776;28;20499;-65
2023/08/09 07:14:30;;;;;;;5.95;2.20;;;16.20;80.00;;;14.87;100.00;96008.91;4934559;29;20098;-64
2023/08/09 07:16:56;;;;;;;3.10;2.20;;;16.20;80.10;;;14.89;100.00;96011.34;4934585;28;20035;-64
2023/08/09 07:19:22;;;;;;;3.60;2.47;;;16.30;80.40;;;14.93;100.00;96005.38;4933286;28;20032;-64
2023/08/09 07:21:48;;;;;;;3.45;2.25;;;16.30;80.40;;;14.95;100.00;96010.50;4950467;28;20604;-65
2023/08/09 07:24:13;;;;;;;3.38;2.25;;;16.30;80.50;;;14.96;100.00;96001.53;4950361;28;20470;-65
2023/08/09 07:26:39;;;;;;;4.45;2.22;;;16.30;80.60;;;14.96;100.00;95997.03;4934732;29;20038;-65
2023/08/09 07:29:05;;;;;;;4.30;2.03;;;16.20;80.40;;;14.97;100.00;95997.84;4933580;28;20161;-64
2023/08/09 07:31:33;;;;;;;3.60;2.08;;;16.30;80.50;;;14.97;100.00;95997.84;4950337;28;20039;-65
2023/08/09 07:33:59;;;;;;;2.92;1.88;;;16.30;80.70;;;14.99;100.00;95995.78;4950994;28;20039;-64
2023/08/09 07:36:24;;;;;;;3.55;2.08;;;16.30;80.70;;;15.00;100.00;95998.22;4949670;28;20046;-64
2023/08/09 07:38:50;;;;;;;3.38;1.88;;;16.30;81.10;;;15.02;100.00;95995.34;4934907;28;20035;-64
2023/08/09 07:41:16;;;;;;;3.42;2.28;;;16.30;80.90;;;15.05;100.00;96000.19;4950294;28;20031;-65
2023/08/09 07:43:42;;;;;;;2.72;1.90;;;16.40;81.00;;;15.08;100.00;96002.41;4933790;29;20031;-65
2023/08/09 07:46:07;;;;;;;2.95;2.03;;;16.50;81.10;;;15.12;100.00;96000.94;4933308;28;20117;-65
2023/08/09 07:48:33;;;;;;;3.70;1.90;;;16.50;80.90;;;15.16;100.00;96001.28;4937983;28;20047;-65
2023/08/09 07:50:59;;;;;;;4.43;1.98;;;16.50;80.40;;;15.19;100.00;95999.03;4934605;29;20035;-65
2023/08/09 07:53:25;;;;;;;3.83;1.70;;;16.60;80.40;;;15.20;100.00;96003.31;4932826;28;20130;-64
2023/08/09 07:55:51;;;;;;;2.97;1.75;;;16.60;79.80;;;15.22;100.00;96000.44;4933316;29;20110;-65
2023/08/09 07:58:17;;;;;;;2.85;1.60;;;16.50;79.80;;;15.23;100.00;95994.91;4964990;28;20066;-64
2023/08/09 08:00:43;;;;;;;3.25;1.80;;;16.50;79.40;;;15.27;100.00;96004.03;4950560;28;20051;-64
2023/08/09 08:03:09;;;;;;;2.75;1.40;;;16.60;79.40;;;15.27;100.00;96012.00;4948988;28;20118;-64
2023/08/09 08:05:36;;;;;;;3.47;1.55;;;16.60;78.90;;;15.27;100.00;96012.00;4951321;28;20117;-65
2023/08/09 08:08:02;;;;;;;3.42;1.85;;;16.60;79.20;;;15.28;100.00;96012.78;4937432;28;20042;-64
2023/08/09 08:10:28;;;;;;;4.72;2.08;;;16.60;79.00;;;15.29;100.00;96017.88;4932951;29;20040;-64
2023/08/09 08:12:55;;;;;;;3.40;1.70;;;16.60;79.10;;;15.32;100.00;96014.78;4933065;28;20094;-65
2023/08/09 08:15:22;;;;;;;2.58;1.77;;;16.70;79.10;;;15.33;100.00;96016.41;4949784;28;20031;-65
2023/08/09 08:17:51;;;;;;;4.35;2.08;;;16.60;79.00;;;15.33;100.00;96011.09;4950746;28;20040;-64
2023/08/09 08:20:19;;;;;;;2.38;1.60;;;16.60;78.80;;;15.38;100.00;96022.88;4933331;29;20409;-64
2023/08/09 08:22:46;;;;;;;3.30;1.77;;;16.70;78.70;;;15.38;100.00;96026.34;4931272;29;20059;-65
2023/08/09 08:25:13;;;;;;;3.13;1.52;;;16.70;78.40;;;15.43;100.00;96028.34;4948687;28;20035;-64
2023/08/09 08:27:40;;;;;;;2.65;1.67;;;16.80;78.60;;;15.46;100.00;96022.59;4932635;28;20532;-65
2023/08/09 08:30:08;;;;;;;5.05;1.90;;;16.80;78.10;;;15.50;100.00;96016.63;4932697;28;20042;-65
2023/08/09 08:32:35;;;;;;;5.13;1.88;;;16.90;77.70;;;15.54;100.00;96017.00;4948585;28;20081;-65
2023/08/09 08:35:02;;;;;;;2.95;1.60;;;17.00;78.00;;;15.60;100.00;96016.94;4933081;28;20416;-64
2023/08/09 08:37:28;;;;;;;3.05;1.88;;;17.10;77.70;;;15.65;100.00;96024.25;4948467;28;20107;-64
2023/08/09 08:39:55;;;;;;;3.03;1.60;;;17.00;77.20;;;15.69;100.00;96016.66;4948770;28;20129;-65
2023/08/09 08:42:21;;;;;;;2.92;1.58;;;17.10;76.80;;;15.72;100.00;96014.38;4916812;29;20118;-65
2023/08/09 08:44:46;;;;;;;3.47;1.85;;;17.20;77.00;;;15.75;100.00;96021.88;4950285;28;20069;-64
2023/08/09 08:47:12;;;;;;;2.85;1.65;;;17.20;76.60;;;15.82;100.00;96019.13;4932454;29;20059;-64
2023/08/09 08:49:42;;;;;;;3.28;1.60;;;17.40;76.90;;;15.87;100.00;96021.94;4931458;28;20035;-64
2023/08/09 08:52:08;;;;;;;3.53;1.60;;;17.40;76.20;;;15.91;100.00;96013.31;4945949;28;20553;-64
2023/08/09 08:54:34;;;;;;;3.08;1.70;;;17.40;75.80;;;15.95;100.00;96015.50;4932409;29;20109;-65
2023/08/09 08:56:59;;;;;;;3.95;1.42;;;17.30;76.30;;;16.00;100.00;96018.28;4935151;28;20047;-64
2023/08/09 08:59:25;;;;;;;2.40;1.70;;;17.50;76.20;;;16.09;100.00;96022.25;4935880;28;20068;-65
2023/08/09 09:01:51;;;;;;;2.15;1.45;;;17.70;76.00;;;16.17;100.00;96029.91;4936469;29;20031;-64
2023/08/09 09:04:17;;;;;;;6.43;1.80;;;17.80;75.50;;;16.24;100.00;96020.78;4951837;28;20037;-64
2023/08/09 09:06:43;;;;;;;2.45;1.50;;;18.00;75.60;;;16.37;100.00;96006.53;4936677;29;20066;-64
2023/08/09 09:09:17;;;;;;;3.13;1.73;;;18.10;73.60;;;16.44;100.00;96019.69;4953561;28;20498;-64
2023/08/09 09:11:46;;;;;;;2.15;1.45;;;18.20;74.30;;;16.52;100.00;96014.88;4946630;28;20189;-64
2023/08/09 09:14:15;;;;;;;3.90;1.60;;;18.20;73.70;;;16.52;100.00;96017.53;4938629;28;20132;-64
2023/08/09 09:16:44;;;;;;;2.80;1.60;;;18.00;74.00;;;16.47;100.00;96020.06;4936182;29;20093;-64
2023/08/09 09:19:10;;;;;;;2.72;1.70;;;17.80;74.60;;;16.46;100.00;96023.75;4920063;28;20513;-65
2023/08/09 09:21:36;;;;;;;2.80;1.65;;;18.00;74.90;;;16.50;100.00;96026.75;4951217;28;20046;-64
2023/08/09 09:24:07;;;;;;;2.90;1.77;;;18.00;74.70;;;16.53;100.00;96028.97;4919808;28;20027;-63
2023/08/09 09:26:33;;;;;;;2.83;1.60;;;18.00;74.60;;;16.56;100.00;96022.41;4940237;28;20039;-64
2023/08/09 09:28:59;;;;;;;2.92;1.52;;;18.10;74.60;;;16.61;100.00;96041.91;4935862;28;20102;-64
2023/08/09 09:31:39;;;;;;;3.97;2.40;;;18.20;74.90;;;16.64;100.00;96038.78;4949991;28;20023;-64
2023/08/09 09:34:11;;;;;;;4.28;1.77;;;18.10;74.90;;;16.64;100.00;96056.59;4936354;28;20030;-64
2023/08/09 09:36:39;;;;;;;3.90;2.00;;;18.00;74.90;;;16.59;100.00;96053.81;4939228;28;20056;-64
2023/08/09 09:39:11;;;;;;;3.45;2.05;;;17.90;75.90;;;16.53;100.00;96074.94;4935833;28;20441;-63
2023/08/09 09:41:38;;;;;;;4.43;1.80;;;17.70;76.50;;;16.48;100.00;96074.78;4950802;28;20039;-64
2023/08/09 09:44:04;;;;;;;3.92;1.85;;;17.70;77.00;;;16.47;100.00;96067.84;4936935;28;20133;-64
2023/08/09 09:46:30;;;;;;;3.72;1.90;;;17.70;77.30;;;16.42;100.00;96074.88;4952623;28;20442;-65
2023/08/09 09:49:04;;;;;;;4.38;2.20;;;17.60;77.30;;;16.37;100.00;96077.41;4951837;28;20035;-64
2023/08/09 09:51:29;;;;;;;4.97;1.90;;;17.60;78.20;;;16.32;100.00;96083.41;4921856;28;20042;-64
2023/08/09 09:53:55;;;;;;;5.18;2.28;;;17.60;78.90;;;16.26;100.00;96081.63;4951616;28;20110;-64
2023/08/09 09:56:21;;;;;;;3.95;1.80;;;17.40;78.80;;;16.26;100.00;96086.91;4952252;28;20121;-64
2023/08/09 09:58:47;;;;;;;3.38;1.90;;;17.60;79.10;;;16.18;100.00;96084.59;4935693;29;20126;-64
2023/08/09 10:01:18;;;;;;;4.20;2.00;;;17.30;79.40;;;16.11;100.00;96084.69;4935026;28;20118;-66
2023/08/09 10:03:43;;;;;;;3.92;2.10;;;17.10;80.10;;;16.05;100.00;96077.59;4955906;28;20109;-64
2023/08/09 10:06:14;;;;;;;2.80;1.80;;;17.20;80.20;;;16.03;100.00;96076.19;4954409;28;20585;-64
2023/08/09 10:08:40;;;;;;;3.20;1.92;;;17.20;80.50;;;16.00;100.00;96060.75;4954915;28;20047;-64
2023/08/09 10:11:07;;;;;;;3.50;2.08;;;17.30;80.00;;;16.08;100.00;96068.41;4949728;28;20058;-65
2023/08/09 10:13:32;;;;;;;4.22;2.17;;;17.60;79.70;;;16.14;100.00;96062.19;4934576;28;20051;-65